logo
Search for airport 
image banner adimage banner adimage banner ad
image banner ad

EPKO - Korne

Located in , Poland

ICAO - EPKO, IATA - OSZ

Data provided by Airmate  

General information

Coordinates: N54°7'47" E17°50'43"
Elevation is 535 feet MSL.
 
View others Airports in West Pomerania

Operational data

Special qualification required
Current time UTC:
Current local time:
Weather at : EPCE - Cewice ( 32 km )
TAF: TAF EPCE 241700Z 2418/2506 03008KT CAVOK TEMPO 2420/2506 2000 BR BKN004 PROB30 TEMPO 2421/2505 0400 FG BKN002
View NOTAMs / SUP AIP / TFR affecting this airport [VIEW]
Communications frequencies: [VIEW]

Runways:

RWY identifierQFULength (ft)Width (ft)SurfaceLDA (ft)
0663°1804164GRASS1804
24243°1804164GRASS1804
10105°131298GRASS1312
28285°131298GRASS1312

Airport contact information

Address: Poland

Satellite view of EPKO